Time,TemperatureF,DewpointF,PressureIn,WindDirection,WindDirectionDegrees,WindSpeedMPH,WindSpeedGustMPH,Humidity,HourlyPrecipIn,Conditions,Clouds,dailyrainin,SoftwareType,DateUTC
2013-02-28 00:14:00,50.3,47.0,29.75,WNW,292,8.0,13.0,88,0.00,,,0.00,weatherlink.com 1.10,2013-02-28 05:14:00,
2013-02-28 00:29:00,50.3,46.0,29.74,SW,217,9.0,14.0,85,0.00,,,0.00,weatherlink.com 1.10,2013-02-28 05:29:00,
2013-02-28 00:44:00,50.1,46.0,29.74,West,271,9.0,14.0,85,0.00,,,0.00,weatherlink.com 1.10,2013-02-28 05:44:00,
2013-02-28 00:59:00,50.1,46.0,29.75,WSW,250,14.0,15.0,84,0.00,,,0.00,weatherlink.com 1.10,2013-02-28 05:59:00,
2013-02-28 01:14:00,50.1,46.0,29.74,West,281,11.0,14.0,84,0.00,,,0.00,weatherlink.com 1.10,2013-02-28 06:14:00,
2013-02-28 01:29:00,49.8,45.0,29.74,West,269,8.0,15.0,83,0.00,,,0.00,weatherlink.com 1.10,2013-02-28 06:29:00,
2013-02-28 01:44:00,49.7,45.0,29.74,WSW,252,8.0,15.0,84,0.00,,,0.00,weatherlink.com 1.10,2013-02-28 06:44:00,
2013-02-28 01:59:00,49.6,45.0,29.73,West,267,6.0,14.0,83,0.00,,,0.00,weatherlink.com 1.10,2013-02-28 06:59:00,
2013-02-28 02:14:00,49.3,45.0,29.73,WSW,247,8.0,14.0,84,0.00,,,0.00,weatherlink.com 1.10,2013-02-28 07:14:00,
2013-02-28 02:29:00,48.8,45.0,29.73,West,263,4.0,11.0,85,0.00,,,0.00,weatherlink.com 1.10,2013-02-28 07:29:00,
2013-02-28 02:44:00,48.3,44.0,29.73,West,276,3.0,10.0,85,0.00,,,0.00,weatherlink.com 1.10,2013-02-28 07:44:00,
2013-02-28 02:59:00,48.3,44.0,29.73,West,271,7.0,10.0,84,0.00,,,0.00,weatherlink.com 1.10,2013-02-28 07:59:00,
2013-02-28 03:14:00,48.8,44.0,29.72,WNW,294,10.0,14.0,83,0.00,,,0.00,weatherlink.com 1.10,2013-02-28 08:14:00,
2013-02-28 03:29:00,48.5,44.0,29.72,West,267,5.0,11.0,83,0.00,,,0.00,weatherlink.com 1.10,2013-02-28 08:29:00,
2013-02-28 03:44:00,48.3,43.0,29.72,West,265,12.0,13.0,83,0.00,,,0.00,weatherlink.com 1.10,2013-02-28 08:44:00,
2013-02-28 03:59:00,48.0,43.0,29.71,West,275,11.0,14.0,84,0.00,,,0.00,weatherlink.com 1.10,2013-02-28 08:59:00,
2013-02-28 04:14:00,47.6,43.0,29.72,West,272,5.0,12.0,84,0.00,,,0.00,weatherlink.com 1.10,2013-02-28 09:14:00,
2013-02-28 04:30:00,46.8,43.0,29.73,NW,323,6.0,12.0,85,0.00,,,0.00,weatherlink.com 1.10,2013-02-28 09:30:00,
2013-02-28 04:45:00,46.2,43.0,29.73,WNW,290,6.0,12.0,87,0.00,,,0.00,weatherlink.com 1.10,2013-02-28 09:45:00,
2013-02-28 05:00:00,46.0,42.0,29.74,WNW,285,5.0,11.0,87,0.00,,,0.00,weatherlink.com 1.10,2013-02-28 10:00:00,
2013-02-28 05:15:00,45.5,42.0,29.74,NW,313,4.0,10.0,88,0.00,,,0.00,weatherlink.com 1.10,2013-02-28 10:15:00,
2013-02-28 05:30:00,45.7,42.0,29.74,NW,324,9.0,12.0,88,0.00,,,0.00,weatherlink.com 1.10,2013-02-28 10:30:00,
2013-02-28 05:45:00,45.9,42.0,29.74,West,267,9.0,13.0,87,0.00,,,0.00,weatherlink.com 1.10,2013-02-28 10:45:00,
2013-02-28 06:00:00,45.7,42.0,29.74,NW,304,10.0,14.0,87,0.00,,,0.00,weatherlink.com 1.10,2013-02-28 11:00:00,
2013-02-28 06:15:00,45.5,42.0,29.75,WNW,303,5.0,14.0,88,0.00,,,0.00,weatherlink.com 1.10,2013-02-28 11:15:00,
2013-02-28 06:30:00,45.1,42.0,29.75,WNW,296,10.0,12.0,88,0.00,,,0.00,weatherlink.com 1.10,2013-02-28 11:30:00,
2013-02-28 06:45:00,44.7,42.0,29.75,NW,309,5.0,11.0,89,0.00,,,0.00,weatherlink.com 1.10,2013-02-28 11:45:00,
2013-02-28 07:00:00,44.4,41.0,29.76,WNW,302,4.0,10.0,89,0.00,,,0.00,weatherlink.com 1.10,2013-02-28 12:00:00,
2013-02-28 07:15:00,44.7,42.0,29.76,West,274,5.0,10.0,89,0.00,,,0.00,weatherlink.com 1.10,2013-02-28 12:15:00,
2013-02-28 07:30:00,45.5,42.0,29.76,WNW,287,6.0,10.0,88,0.00,,,0.00,weatherlink.com 1.10,2013-02-28 12:30:00,
2013-02-28 07:45:00,46.3,43.0,29.77,WNW,291,7.0,9.0,87,0.00,,,0.00,weatherlink.com 1.10,2013-02-28 12:45:00,
2013-02-28 08:00:00,47.3,43.0,29.77,West,267,8.0,12.0,85,0.00,,,0.00,weatherlink.com 1.10,2013-02-28 13:00:00,
2013-02-28 08:15:00,48.4,44.0,29.77,WNW,294,4.0,11.0,83,0.00,,,0.00,weatherlink.com 1.10,2013-02-28 13:15:00,
2013-02-28 08:30:00,49.3,44.0,29.77,WNW,297,6.0,10.0,81,0.00,,,0.00,weatherlink.com 1.10,2013-02-28 13:30:00,
2013-02-28 08:45:00,50.0,44.0,29.76,WNW,290,5.0,10.0,79,0.00,,,0.00,weatherlink.com 1.10,2013-02-28 13:45:00,
2013-02-28 09:00:00,50.5,44.0,29.77,WNW,298,8.0,10.0,77,0.00,,,0.00,weatherlink.com 1.10,2013-02-28 14:00:00,
2013-02-28 09:15:00,51.2,44.0,29.77,NW,321,6.0,12.0,77,0.00,,,0.00,weatherlink.com 1.10,2013-02-28 14:15:00,
2013-02-28 09:30:00,52.4,44.0,29.76,NW,307,5.0,10.0,74,0.00,,,0.00,weatherlink.com 1.10,2013-02-28 14:30:00,
2013-02-28 09:45:00,52.0,44.0,29.76,NNW,331,6.0,10.0,74,0.00,,,0.00,weatherlink.com 1.10,2013-02-28 14:45:00,
2013-02-28 10:00:00,52.2,44.0,29.76,NW,307,8.0,13.0,73,0.00,,,0.00,weatherlink.com 1.10,2013-02-28 15:00:00,
2013-02-28 10:15:00,52.6,43.0,29.76,WNW,299,5.0,11.0,71,0.00,,,0.00,weatherlink.com 1.10,2013-02-28 15:15:00,
2013-02-28 10:30:00,53.1,43.0,29.75,NW,309,8.0,12.0,69,0.00,,,0.00,weatherlink.com 1.10,2013-02-28 15:30:00,
2013-02-28 10:45:00,53.6,44.0,29.75,West,277,10.0,14.0,70,0.00,,,0.00,weatherlink.com 1.10,2013-02-28 15:45:00,
2013-02-28 11:00:00,54.3,41.0,29.74,WNW,292,7.0,14.0,61,0.00,,,0.00,weatherlink.com 1.10,2013-02-28 16:00:00,
2013-02-28 11:15:00,54.1,41.0,29.74,NW,315,4.0,15.0,61,0.00,,,0.00,weatherlink.com 1.10,2013-02-28 16:15:00,
2013-02-28 11:30:00,54.3,40.0,29.74,NW,323,8.0,16.0,58,0.00,,,0.00,weatherlink.com 1.10,2013-02-28 16:30:00,
2013-02-28 11:45:00,54.7,39.0,29.73,NW,323,12.0,13.0,56,0.00,,,0.00,weatherlink.com 1.10,2013-02-28 16:45:00,
2013-02-28 12:00:00,55.4,40.0,29.73,NW,310,6.0,13.0,57,0.00,,,0.00,weatherlink.com 1.10,2013-02-28 17:00:00,
2013-02-28 12:15:00,54.4,38.0,29.72,West,279,5.0,20.0,55,0.00,,,0.00,weatherlink.com 1.10,2013-02-28 17:15:00,
2013-02-28 12:30:00,54.5,38.0,29.71,NW,324,7.0,14.0,54,0.00,,,0.00,weatherlink.com 1.10,2013-02-28 17:30:00,
2013-02-28 12:45:00,56.3,39.0,29.71,WNW,284,12.0,20.0,52,0.00,,,0.00,weatherlink.com 1.10,2013-02-28 17:45:00,
2013-02-28 13:00:00,55.9,37.0,29.70,WNW,296,12.0,17.0,50,0.00,,,0.00,weatherlink.com 1.10,2013-02-28 18:00:00,
2013-02-28 13:15:00,54.8,37.0,29.69,NW,310,11.0,16.0,52,0.00,,,0.00,weatherlink.com 1.10,2013-02-28 18:15:00,
2013-02-28 13:30:00,54.7,38.0,29.69,WNW,282,9.0,13.0,53,0.00,,,0.00,weatherlink.com 1.10,2013-02-28 18:30:00,
2013-02-28 13:45:00,55.2,36.0,29.69,WNW,300,7.0,18.0,49,0.00,,,0.00,weatherlink.com 1.10,2013-02-28 18:45:00,
2013-02-28 14:00:00,55.1,37.0,29.69,NNW,338,9.0,17.0,51,0.00,,,0.00,weatherlink.com 1.10,2013-02-28 19:00:00,
2013-02-28 14:15:00,54.9,37.0,29.69,NNW,347,9.0,16.0,51,0.00,,,0.00,weatherlink.com 1.10,2013-02-28 19:15:00,
2013-02-28 14:30:00,54.9,39.0,29.69,North,9,1.0,13.0,56,0.00,,,0.00,weatherlink.com 1.10,2013-02-28 19:30:00,
2013-02-28 14:45:00,52.7,39.0,29.70,North,355,10.0,16.0,61,0.00,,,0.00,weatherlink.com 1.10,2013-02-28 19:45:00,
2013-02-28 15:00:00,52.4,39.0,29.71,NNW,329,8.0,16.0,60,0.00,,,0.00,weatherlink.com 1.10,2013-02-28 20:00:00,
2013-02-28 15:15:00,52.4,39.0,29.72,NNW,346,12.0,20.0,60,0.00,,,0.00,weatherlink.com 1.10,2013-02-28 20:15:00,
2013-02-28 15:30:00,52.2,38.0,29.72,NNE,16,10.0,18.0,58,0.00,,,0.00,weatherlink.com 1.10,2013-02-28 20:30:00,
2013-02-28 15:46:00,52.4,39.0,29.72,NE,51,5.0,11.0,61,0.00,,,0.00,weatherlink.com 1.10,2013-02-28 20:46:00,
2013-02-28 16:01:00,52.0,38.0,29.72,North,11,9.0,11.0,60,0.00,,,0.00,weatherlink.com 1.10,2013-02-28 21:01:00,
2013-02-28 16:16:00,51.6,37.0,29.72,North,349,3.0,16.0,58,0.00,,,0.00,weatherlink.com 1.10,2013-02-28 21:16:00,
2013-02-28 16:31:00,51.4,37.0,29.73,North,355,10.0,14.0,58,0.00,,,0.00,weatherlink.com 1.10,2013-02-28 21:31:00,
2013-02-28 16:46:00,51.3,37.0,29.74,NNW,347,10.0,14.0,59,0.00,,,0.00,weatherlink.com 1.10,2013-02-28 21:46:00,
2013-02-28 17:01:00,51.0,36.0,29.74,NNW,348,8.0,13.0,58,0.00,,,0.00,weatherlink.com 1.10,2013-02-28 22:01:00,
2013-02-28 17:16:00,50.7,36.0,29.75,NW,325,8.0,14.0,58,0.00,,,0.00,weatherlink.com 1.10,2013-02-28 22:16:00,
2013-02-28 17:31:00,50.5,36.0,29.75,North,360,7.0,15.0,58,0.00,,,0.00,weatherlink.com 1.10,2013-02-28 22:31:00,
2013-02-28 17:46:00,50.4,37.0,29.77,NNW,331,5.0,14.0,60,0.00,,,0.00,weatherlink.com 1.10,2013-02-28 22:46:00,
2013-02-28 18:01:00,49.8,37.0,29.77,NW,313,6.0,13.0,61,0.00,,,0.00,weatherlink.com 1.10,2013-02-28 23:01:00,
2013-02-28 18:16:00,49.1,37.0,29.77,NW,317,5.0,8.0,63,0.00,,,0.00,weatherlink.com 1.10,2013-02-28 23:16:00,
2013-02-28 18:31:00,48.5,37.0,29.78,WNW,295,6.0,8.0,64,0.00,,,0.00,weatherlink.com 1.10,2013-02-28 23:31:00,
2013-02-28 18:46:00,47.9,37.0,29.78,WNW,283,5.0,8.0,66,0.00,,,0.00,weatherlink.com 1.10,2013-02-28 23:46:00,
2013-02-28 19:01:00,47.3,37.0,29.79,WNW,290,4.0,7.0,67,0.00,,,0.00,weatherlink.com 1.10,2013-03-01 00:01:00,
2013-02-28 19:16:00,46.8,37.0,29.80,North,5,5.0,7.0,69,0.00,,,0.00,weatherlink.com 1.10,2013-03-01 00:16:00,
2013-02-28 19:31:00,46.5,37.0,29.80,NW,320,4.0,7.0,70,0.00,,,0.00,weatherlink.com 1.10,2013-03-01 00:31:00,
2013-02-28 19:46:00,46.0,37.0,29.81,West,281,3.0,6.0,71,0.00,,,0.00,weatherlink.com 1.10,2013-03-01 00:46:00,
2013-02-28 20:01:00,45.2,37.0,29.82,WNW,287,3.0,5.0,72,0.00,,,0.00,weatherlink.com 1.10,2013-03-01 01:01:00,
2013-02-28 20:16:00,44.6,36.0,29.82,WNW,295,5.0,6.0,73,0.00,,,0.00,weatherlink.com 1.10,2013-03-01 01:16:00,
2013-02-28 20:31:00,44.8,36.0,29.82,NW,319,4.0,6.0,72,0.00,,,0.00,weatherlink.com 1.10,2013-03-01 01:31:00,
2013-02-28 20:46:00,44.4,36.0,29.82,West,272,3.0,4.0,73,0.00,,,0.00,weatherlink.com 1.10,2013-03-01 01:46:00,
2013-02-28 21:01:00,44.0,36.0,29.82,West,280,3.0,6.0,74,0.00,,,0.00,weatherlink.com 1.10,2013-03-01 02:01:00,
2013-02-28 21:16:00,43.8,36.0,29.82,WNW,292,4.0,7.0,73,0.00,,,0.00,weatherlink.com 1.10,2013-03-01 02:16:00,
2013-02-28 21:31:00,43.7,35.0,29.82,West,266,4.0,7.0,72,0.00,,,0.00,weatherlink.com 1.10,2013-03-01 02:31:00,
2013-02-28 21:46:00,43.3,35.0,29.83,WNW,299,5.0,6.0,72,0.00,,,0.00,weatherlink.com 1.10,2013-03-01 02:46:00,
2013-02-28 22:01:00,43.6,35.0,29.83,NW,318,5.0,7.0,71,0.00,,,0.00,weatherlink.com 1.10,2013-03-01 03:01:00,
2013-02-28 22:16:00,43.6,35.0,29.84,West,276,3.0,7.0,71,0.00,,,0.00,weatherlink.com 1.10,2013-03-01 03:16:00,
2013-02-28 22:31:00,43.4,34.0,29.83,WNW,300,6.0,8.0,70,0.00,,,0.00,weatherlink.com 1.10,2013-03-01 03:31:00,
2013-02-28 22:46:00,43.0,34.0,29.84,WNW,293,5.0,8.0,71,0.00,,,0.00,weatherlink.com 1.10,2013-03-01 03:46:00,
2013-02-28 23:01:00,42.5,34.0,29.83,NW,306,6.0,8.0,72,0.00,,,0.00,weatherlink.com 1.10,2013-03-01 04:01:00,
2013-02-28 23:16:00,42.1,34.0,29.83,WNW,285,8.0,9.0,73,0.00,,,0.00,weatherlink.com 1.10,2013-03-01 04:16:00,
2013-02-28 23:31:00,42.0,34.0,29.83,NNW,329,6.0,9.0,72,0.00,,,0.00,weatherlink.com 1.10,2013-03-01 04:31:00,
2013-02-28 23:46:00,41.7,34.0,29.83,NW,320,4.0,11.0,73,0.00,,,0.00,weatherlink.com 1.10,2013-03-01 04:46:00,